Time;durP1;ratioP1;P1;durP2;ratioP2;P2;SDS_P1;SDS_P2;PMS_P1;PMS_P2;Temp;Humidity;BMP_temperature;BMP_pressure;BME280_temperature;BME280_humidity;BME280_pressure;Samples;Min_cycle;Max_cycle;Signal;HPM_P1;HPM_P2
2024/02/18 00:02:23;;;;;;;18.33;12.85;;;;;;;;;;6232368;28;20052;-75
2024/02/18 00:05:25;;;;;;;19.65;11.48;;;;;;;;;;6233794;28;20113;-75
2024/02/18 00:08:28;;;;;;;20.33;11.25;;;;;;;;;;6242305;28;20623;-76
2024/02/18 00:11:30;;;;;;;21.52;11.85;;;;;;;;;;6286379;28;20040;-76
2024/02/18 00:14:32;;;;;;;19.95;12.05;;;;;;;;;;6266586;28;20053;-76
2024/02/18 00:17:38;;;;;;;25.30;13.07;;;;;;;;;;6284791;28;20514;-76
2024/02/18 00:20:40;;;;;;;20.10;10.93;;;;;;;;;;6249565;28;20076;-76
2024/02/18 00:23:42;;;;;;;21.60;13.88;;;;;;;;;;6266562;28;20048;-75
2024/02/18 00:26:48;;;;;;;16.27;9.25;;;;;;;;;;6282308;28;20150;-75
2024/02/18 00:30:00;;;;;;;19.05;12.10;;;;;;;;;;6238101;28;20541;-76
2024/02/18 00:33:03;;;;;;;20.33;9.40;;;;;;;;;;6250653;28;20483;-76
2024/02/18 00:36:06;;;;;;;17.95;10.85;;;;;;;;;;6277845;28;20063;-75
2024/02/18 00:39:09;;;;;;;22.00;12.10;;;;;;;;;;6263908;28;20040;-76
2024/02/18 00:42:11;;;;;;;21.17;11.43;;;;;;;;;;6242199;28;20050;-76
2024/02/18 00:45:15;;;;;;;20.42;10.32;;;;;;;;;;6248964;28;20069;-75
2024/02/18 00:48:17;;;;;;;19.98;11.70;;;;;;;;;;6274760;28;20052;-75
2024/02/18 00:51:19;;;;;;;16.88;9.75;;;;;;;;;;6266120;28;20043;-75
2024/02/18 00:54:21;;;;;;;16.60;9.48;;;;;;;;;;6284755;28;20052;-75
2024/02/18 00:57:23;;;;;;;14.57;9.65;;;;;;;;;;6244358;28;20049;-76
2024/02/18 01:00:26;;;;;;;20.35;10.27;;;;;;;;;;6257098;28;20590;-75
2024/02/18 01:03:28;;;;;;;18.88;10.15;;;;;;;;;;6266078;28;20517;-76
2024/02/18 01:06:30;;;;;;;18.40;11.60;;;;;;;;;;6230396;28;20521;-75
2024/02/18 01:09:33;;;;;;;23.40;9.90;;;;;;;;;;6260983;28;20734;-75
2024/02/18 01:12:36;;;;;;;14.90;8.93;;;;;;;;;;6256346;28;20557;-75
2024/02/18 01:15:39;;;;;;;17.58;9.38;;;;;;;;;;6264075;28;20445;-76
2024/02/18 01:18:42;;;;;;;15.43;10.13;;;;;;;;;;6263183;28;20052;-75
2024/02/18 01:21:46;;;;;;;16.73;9.88;;;;;;;;;;6251320;28;20056;-76
2024/02/18 01:24:48;;;;;;;17.63;10.10;;;;;;;;;;6260087;28;20506;-75
2024/02/18 01:27:51;;;;;;;23.25;10.18;;;;;;;;;;6260390;28;20056;-75
2024/02/18 01:30:53;;;;;;;13.57;8.40;;;;;;;;;;6265590;28;20100;-75
2024/02/18 01:33:56;;;;;;;14.80;8.50;;;;;;;;;;6288334;28;20136;-75
2024/02/18 01:37:00;;;;;;;17.77;9.13;;;;;;;;;;6284164;28;20056;-76
2024/02/18 01:40:03;;;;;;;14.25;9.55;;;;;;;;;;6275078;28;20441;-76
2024/02/18 01:43:06;;;;;;;14.63;8.00;;;;;;;;;;6262224;28;20933;-77
2024/02/18 01:46:08;;;;;;;16.00;8.25;;;;;;;;;;6243151;28;20040;-76
2024/02/18 01:49:11;;;;;;;17.35;10.38;;;;;;;;;;6262762;28;20051;-77
2024/02/18 01:52:14;;;;;;;14.77;9.00;;;;;;;;;;6235568;28;20048;-76
2024/02/18 01:55:17;;;;;;;12.80;8.55;;;;;;;;;;6242998;28;20049;-76
2024/02/18 01:58:19;;;;;;;19.65;9.00;;;;;;;;;;6239139;28;20044;-77
2024/02/18 02:01:22;;;;;;;13.35;6.95;;;;;;;;;;6240926;28;20546;-76
2024/02/18 02:04:26;;;;;;;18.35;8.88;;;;;;;;;;6263368;28;20695;-76
2024/02/18 02:07:29;;;;;;;12.82;9.00;;;;;;;;;;6261254;28;20045;-76
2024/02/18 02:10:31;;;;;;;13.40;6.65;;;;;;;;;;6247266;28;20037;-76
2024/02/18 02:13:33;;;;;;;15.73;8.00;;;;;;;;;;6257536;28;20356;-76
2024/02/18 02:16:35;;;;;;;16.40;7.38;;;;;;;;;;6238468;28;20147;-76
2024/02/18 02:19:37;;;;;;;13.65;7.68;;;;;;;;;;6225373;28;20119;-77
2024/02/18 02:22:40;;;;;;;14.57;8.20;;;;;;;;;;6238741;28;20052;-76
2024/02/18 02:25:42;;;;;;;14.60;9.05;;;;;;;;;;6261607;28;20064;-76
2024/02/18 02:28:53;;;;;;;15.25;8.77;;;;;;;;;;6282363;28;20052;-76
2024/02/18 02:31:55;;;;;;;13.95;8.60;;;;;;;;;;6243378;28;20040;-76
2024/02/18 02:34:59;;;;;;;13.40;6.90;;;;;;;;;;6245150;28;20045;-76
2024/02/18 02:38:01;;;;;;;10.32;7.38;;;;;;;;;;6270480;28;20036;-76
2024/02/18 02:41:04;;;;;;;16.50;8.70;;;;;;;;;;6270906;28;20067;-76
2024/02/18 02:44:06;;;;;;;25.83;11.73;;;;;;;;;;6279999;28;20055;-76
2024/02/18 02:47:10;;;;;;;12.77;8.55;;;;;;;;;;6266503;28;20059;-76
2024/02/18 02:50:12;;;;;;;22.77;13.38;;;;;;;;;;6259334;28;20049;-76
2024/02/18 02:53:14;;;;;;;23.83;12.23;;;;;;;;;;6264071;28;20041;-75
2024/02/18 02:56:17;;;;;;;24.67;14.27;;;;;;;;;;6267678;28;20681;-76
2024/02/18 02:59:19;;;;;;;22.65;14.32;;;;;;;;;;6269777;28;20056;-76
2024/02/18 03:02:22;;;;;;;18.35;12.10;;;;;;;;;;6282107;28;20636;-76
2024/02/18 03:05:25;;;;;;;20.42;9.75;;;;;;;;;;6285522;28;20048;-75
2024/02/18 03:08:27;;;;;;;18.48;9.13;;;;;;;;;;6274926;28;20548;-76
2024/02/18 03:11:29;;;;;;;14.35;10.50;;;;;;;;;;6252707;28;20045;-76
2024/02/18 03:14:31;;;;;;;15.30;9.07;;;;;;;;;;6270332;28;20620;-75
2024/02/18 03:17:35;;;;;;;13.60;9.05;;;;;;;;;;6249581;28;20055;-75
2024/02/18 03:20:37;;;;;;;16.73;8.52;;;;;;;;;;6250148;28;20044;-75
2024/02/18 03:23:42;;;;;;;16.50;9.57;;;;;;;;;;6260395;28;20048;-75
2024/02/18 03:26:44;;;;;;;26.75;11.77;;;;;;;;;;6259729;28;20127;-76
2024/02/18 03:29:46;;;;;;;26.25;13.40;;;;;;;;;;6261676;28;20041;-76
2024/02/18 03:32:49;;;;;;;23.30;14.93;;;;;;;;;;6233901;28;20040;-77
2024/02/18 03:35:51;;;;;;;20.35;11.15;;;;;;;;;;6248781;28;20052;-75
2024/02/18 03:38:53;;;;;;;18.55;12.75;;;;;;;;;;6251742;28;20673;-76
2024/02/18 03:41:56;;;;;;;20.00;10.90;;;;;;;;;;6281548;28;20033;-75
2024/02/18 03:44:58;;;;;;;17.65;9.85;;;;;;;;;;6249388;28;20067;-74
2024/02/18 03:48:00;;;;;;;22.67;12.02;;;;;;;;;;6262166;28;20095;-75
2024/02/18 03:51:02;;;;;;;20.75;10.50;;;;;;;;;;6268354;28;20036;-76
2024/02/18 03:54:05;;;;;;;19.50;10.20;;;;;;;;;;6260642;28;20592;-75
2024/02/18 03:57:08;;;;;;;20.40;11.80;;;;;;;;;;6277725;28;20045;-75
2024/02/18 04:00:11;;;;;;;15.18;9.27;;;;;;;;;;6265133;28;20541;-75
2024/02/18 04:03:14;;;;;;;20.23;10.32;;;;;;;;;;6267255;28;20040;-75
2024/02/18 04:06:17;;;;;;;20.23;11.15;;;;;;;;;;6264548;28;20048;-76
2024/02/18 04:09:19;;;;;;;17.55;10.57;;;;;;;;;;6246729;28;20647;-76
2024/02/18 04:12:22;;;;;;;17.77;9.50;;;;;;;;;;6246372;28;20041;-75
2024/02/18 04:15:25;;;;;;;19.25;11.13;;;;;;;;;;6245692;28;20125;-76
2024/02/18 04:18:28;;;;;;;21.02;12.00;;;;;;;;;;6285015;28;20082;-75
2024/02/18 04:21:30;;;;;;;20.15;10.98;;;;;;;;;;6254183;28;20059;-76
2024/02/18 04:24:42;;;;;;;16.90;10.70;;;;;;;;;;6247753;28;20083;-76
2024/02/18 04:27:45;;;;;;;15.80;9.05;;;;;;;;;;6259607;28;20059;-75
2024/02/18 04:30:48;;;;;;;23.85;11.63;;;;;;;;;;6268232;28;20052;-76
2024/02/18 04:33:51;;;;;;;19.90;10.95;;;;;;;;;;6252558;28;20614;-76
2024/02/18 04:36:53;;;;;;;19.35;12.27;;;;;;;;;;6267611;28;20049;-75
2024/02/18 04:39:57;;;;;;;15.18;10.75;;;;;;;;;;6242785;28;20681;-76
2024/02/18 04:42:59;;;;;;;19.25;10.70;;;;;;;;;;6265996;28;20045;-76
2024/02/18 04:46:01;;;;;;;23.40;12.75;;;;;;;;;;6250467;28;20057;-76
2024/02/18 04:49:04;;;;;;;20.38;13.13;;;;;;;;;;6246680;28;20150;-76
2024/02/18 04:52:07;;;;;;;18.92;12.13;;;;;;;;;;6247070;28;20127;-76
2024/02/18 04:55:09;;;;;;;31.83;15.68;;;;;;;;;;6246702;28;20502;-76
2024/02/18 04:58:11;;;;;;;27.83;16.35;;;;;;;;;;6263814;28;20048;-76
2024/02/18 05:01:15;;;;;;;32.72;16.80;;;;;;;;;;6265980;28;20061;-76
2024/02/18 05:04:19;;;;;;;38.58;21.20;;;;;;;;;;6263892;28;20045;-76
2024/02/18 05:07:22;;;;;;;27.10;15.30;;;;;;;;;;6257750;28;20052;-76
2024/02/18 05:10:26;;;;;;;23.98;13.45;;;;;;;;;;6251344;28;20049;-76
2024/02/18 05:13:28;;;;;;;26.98;14.45;;;;;;;;;;6275468;28;20274;-75
2024/02/18 05:16:31;;;;;;;24.65;14.48;;;;;;;;;;6280622;28;20131;-76
2024/02/18 05:19:40;;;;;;;19.88;11.82;;;;;;;;;;6246700;28;20064;-77
2024/02/18 05:22:43;;;;;;;25.27;12.70;;;;;;;;;;6271290;28;20071;-77
2024/02/18 05:25:46;;;;;;;19.15;12.05;;;;;;;;;;6263905;28;20063;-77
2024/02/18 05:28:51;;;;;;;38.05;19.52;;;;;;;;;;6287358;28;20513;-76
2024/02/18 05:31:54;;;;;;;19.00;11.68;;;;;;;;;;6261729;28;20095;-76
2024/02/18 05:34:57;;;;;;;19.90;13.07;;;;;;;;;;6240461;28;20418;-77
2024/02/18 05:38:01;;;;;;;21.08;11.93;;;;;;;;;;6278437;28;20193;-76
2024/02/18 05:41:04;;;;;;;25.90;13.63;;;;;;;;;;6263205;28;20540;-76
2024/02/18 05:44:06;;;;;;;21.50;11.73;;;;;;;;;;6243110;28;20199;-76
2024/02/18 05:47:09;;;;;;;25.85;12.95;;;;;;;;;;6264232;28;20047;-76
2024/02/18 05:50:12;;;;;;;23.27;12.05;;;;;;;;;;6263669;28;20552;-76
2024/02/18 05:53:14;;;;;;;23.70;11.65;;;;;;;;;;6282608;28;20053;-75
2024/02/18 05:56:17;;;;;;;19.48;12.32;;;;;;;;;;6278835;28;20056;-75
2024/02/18 05:59:19;;;;;;;28.25;13.85;;;;;;;;;;6281236;28;20048;-76
2024/02/18 06:02:25;;;;;;;23.70;12.52;;;;;;;;;;6280485;28;20728;-75
2024/02/18 06:05:27;;;;;;;19.73;12.85;;;;;;;;;;6264636;28;20406;-75
2024/02/18 06:08:29;;;;;;;20.02;14.52;;;;;;;;;;6269496;28;20037;-75
2024/02/18 06:11:32;;;;;;;19.55;12.40;;;;;;;;;;6247445;28;20045;-75
2024/02/18 06:14:34;;;;;;;25.45;12.32;;;;;;;;;;6267014;28;20052;-75
2024/02/18 06:17:36;;;;;;;24.90;13.18;;;;;;;;;;6283849;28;20053;-75
2024/02/18 06:20:40;;;;;;;28.38;16.00;;;;;;;;;;6227576;28;20107;-74
2024/02/18 06:23:42;;;;;;;27.23;16.48;;;;;;;;;;6276826;28;20052;-73
2024/02/18 06:26:44;;;;;;;28.40;15.18;;;;;;;;;;6284578;28;20059;-75
2024/02/18 06:29:47;;;;;;;23.70;15.02;;;;;;;;;;6250052;28;20048;-76
2024/02/18 06:32:49;;;;;;;35.08;20.38;;;;;;;;;;6244135;28;20037;-75
2024/02/18 06:35:51;;;;;;;34.60;19.90;;;;;;;;;;6268685;28;20051;-76
2024/02/18 06:38:53;;;;;;;52.03;27.90;;;;;;;;;;6289410;28;20048;-76
2024/02/18 06:41:56;;;;;;;48.65;26.00;;;;;;;;;;6266998;28;20051;-77
2024/02/18 06:44:58;;;;;;;30.17;14.10;;;;;;;;;;6262203;28;20044;-78
2024/02/18 06:48:01;;;;;;;28.98;17.45;;;;;;;;;;6293790;28;20071;-77
2024/02/18 06:51:03;;;;;;;35.15;21.80;;;;;;;;;;6267765;28;20040;-76
2024/02/18 06:54:05;;;;;;;40.72;21.38;;;;;;;;;;6275916;28;20051;-77
2024/02/18 06:57:09;;;;;;;38.85;20.13;;;;;;;;;;6289396;28;20536;-75
2024/02/18 07:00:12;;;;;;;27.02;15.68;;;;;;;;;;6300262;28;20049;-76
2024/02/18 07:03:15;;;;;;;23.85;15.85;;;;;;;;;;6307880;28;20056;-76
2024/02/18 07:06:18;;;;;;;29.38;17.40;;;;;;;;;;6309822;28;20056;-76
2024/02/18 07:09:21;;;;;;;30.50;18.83;;;;;;;;;;6249465;28;20046;-76
2024/02/18 07:12:23;;;;;;;31.98;19.27;;;;;;;;;;6286992;28;20561;-76
2024/02/18 07:15:26;;;;;;;27.20;17.38;;;;;;;;;;6278499;28;20047;-77
2024/02/18 07:18:30;;;;;;;27.92;16.75;;;;;;;;;;6295111;28;20052;-77
2024/02/18 07:21:32;;;;;;;41.70;21.35;;;;;;;;;;6309752;28;20055;-76
2024/02/18 07:24:35;;;;;;;31.52;19.17;;;;;;;;;;6251333;28;20059;-77
2024/02/18 07:27:39;;;;;;;30.65;18.20;;;;;;;;;;6268139;28;20057;-78
2024/02/18 07:30:42;;;;;;;31.85;17.85;;;;;;;;;;6251451;28;20079;-76
2024/02/18 07:33:44;;;;;;;26.90;14.57;;;;;;;;;;6249971;28;20037;-75
2024/02/18 07:36:47;;;;;;;31.35;20.33;;;;;;;;;;6281607;28;20037;-78
2024/02/18 07:39:59;;;;;;;30.10;17.15;;;;;;;;;;6254518;28;20056;-76
2024/02/18 07:43:03;;;;;;;26.20;17.27;;;;;;;;;;6268438;28;20502;-74
2024/02/18 07:46:05;;;;;;;24.52;13.20;;;;;;;;;;6277326;28;20053;-75
2024/02/18 07:49:09;;;;;;;27.00;14.45;;;;;;;;;;6280728;28;20060;-75
2024/02/18 07:52:12;;;;;;;25.25;15.55;;;;;;;;;;6266584;28;20044;-74
2024/02/18 07:55:14;;;;;;;26.30;15.73;;;;;;;;;;6248120;28;20468;-74
2024/02/18 07:58:16;;;;;;;28.50;16.10;;;;;;;;;;6281856;28;20045;-74
2024/02/18 08:01:18;;;;;;;28.30;16.73;;;;;;;;;;6240608;28;20048;-75
2024/02/18 08:04:20;;;;;;;24.95;17.67;;;;;;;;;;6275510;28;20093;-75
2024/02/18 08:07:24;;;;;;;29.92;16.85;;;;;;;;;;6263895;28;20048;-75
2024/02/18 08:10:27;;;;;;;24.77;15.82;;;;;;;;;;6256572;28;20052;-74
2024/02/18 08:13:29;;;;;;;26.00;16.20;;;;;;;;;;6277903;28;20441;-74
2024/02/18 08:16:32;;;;;;;22.58;13.98;;;;;;;;;;6232555;28;20103;-74
2024/02/18 08:19:34;;;;;;;16.25;9.10;;;;;;;;;;6274522;28;20037;-74
2024/02/18 08:22:36;;;;;;;26.08;14.32;;;;;;;;;;6278887;28;20186;-74
2024/02/18 08:25:38;;;;;;;28.02;16.23;;;;;;;;;;6279924;28;20048;-74
2024/02/18 08:28:40;;;;;;;24.38;14.90;;;;;;;;;;6279420;28;20105;-75
2024/02/18 08:31:42;;;;;;;29.52;16.70;;;;;;;;;;6262079;28;20048;-74
2024/02/18 08:34:45;;;;;;;22.05;13.52;;;;;;;;;;6243850;28;20533;-74
2024/02/18 08:37:49;;;;;;;33.50;20.55;;;;;;;;;;6240036;28;20198;-75
2024/02/18 08:40:52;;;;;;;36.42;25.73;;;;;;;;;;6245271;28;20056;-74
2024/02/18 08:43:54;;;;;;;44.47;30.25;;;;;;;;;;6259958;28;20044;-74
2024/02/18 08:46:56;;;;;;;46.88;27.25;;;;;;;;;;6245238;28;20480;-75
2024/02/18 08:49:59;;;;;;;32.13;21.77;;;;;;;;;;6245661;28;20053;-74
2024/02/18 08:53:02;;;;;;;37.75;20.35;;;;;;;;;;6271357;28;20049;-74
2024/02/18 08:56:13;;;;;;;31.17;18.15;;;;;;;;;;6255894;28;20052;-74
2024/02/18 08:59:16;;;;;;;31.45;19.20;;;;;;;;;;6260284;28;20043;-74
2024/02/18 09:02:18;;;;;;;29.60;18.80;;;;;;;;;;6239192;28;20056;-74
2024/02/18 09:05:22;;;;;;;25.33;17.35;;;;;;;;;;6255119;28;20105;-74
2024/02/18 09:08:25;;;;;;;30.23;15.68;;;;;;;;;;6279847;28;20130;-74
2024/02/18 09:11:29;;;;;;;32.42;17.50;;;;;;;;;;6261580;28;20059;-75
2024/02/18 09:14:31;;;;;;;31.00;19.58;;;;;;;;;;6244220;28;20634;-75
2024/02/18 09:17:33;;;;;;;32.28;19.00;;;;;;;;;;6260470;28;20049;-75
2024/02/18 09:20:36;;;;;;;29.92;18.63;;;;;;;;;;6247025;28;20057;-75
2024/02/18 09:23:38;;;;;;;29.60;18.17;;;;;;;;;;6262682;28;20040;-74
2024/02/18 09:26:41;;;;;;;37.00;19.50;;;;;;;;;;6262993;28;20083;-75
2024/02/18 09:29:44;;;;;;;33.67;18.83;;;;;;;;;;6268945;28;20059;-75
2024/02/18 09:32:46;;;;;;;28.25;17.55;;;;;;;;;;6250578;28;20048;-75
2024/02/18 09:35:48;;;;;;;37.83;22.50;;;;;;;;;;6263890;28;20056;-75
2024/02/18 09:38:51;;;;;;;44.83;22.40;;;;;;;;;;6284348;28;20051;-76
2024/02/18 09:41:55;;;;;;;35.53;20.33;;;;;;;;;;6278415;28;20040;-75
2024/02/18 09:45:03;;;;;;;43.88;23.90;;;;;;;;;;6268326;28;20048;-75
2024/02/18 09:48:07;;;;;;;44.38;22.88;;;;;;;;;;6263795;28;20075;-75
2024/02/18 09:51:10;;;;;;;44.05;21.73;;;;;;;;;;6245280;28;20052;-75
2024/02/18 09:54:13;;;;;;;44.53;24.15;;;;;;;;;;6237685;28;20044;-76
2024/02/18 09:57:15;;;;;;;33.78;21.13;;;;;;;;;;6269634;28;20581;-75
2024/02/18 10:00:20;;;;;;;29.98;18.52;;;;;;;;;;6233773;28;20051;-75
2024/02/18 10:03:23;;;;;;;33.08;18.67;;;;;;;;;;6241853;28;20067;-75
2024/02/18 10:06:25;;;;;;;33.80;17.42;;;;;;;;;;6240618;28;20048;-74
2024/02/18 10:09:31;;;;;;;33.42;17.58;;;;;;;;;;6259258;28;20113;-74
2024/02/18 10:12:33;;;;;;;43.08;23.58;;;;;;;;;;6254841;28;20121;-74
2024/02/18 10:15:36;;;;;;;33.75;20.40;;;;;;;;;;6262882;28;20578;-76
2024/02/18 10:18:38;;;;;;;49.92;27.13;;;;;;;;;;6279294;28;20437;-76
2024/02/18 10:21:41;;;;;;;49.80;28.20;;;;;;;;;;6247244;28;20041;-76
2024/02/18 10:24:44;;;;;;;51.00;28.65;;;;;;;;;;6280617;28;20510;-77
2024/02/18 10:27:47;;;;;;;44.90;27.02;;;;;;;;;;6259332;28;20076;-76
2024/02/18 10:30:50;;;;;;;57.05;26.88;;;;;;;;;;6256792;28;20709;-75
2024/02/18 10:33:55;;;;;;;44.92;24.50;;;;;;;;;;6245839;28;20040;-75
2024/02/18 10:37:05;;;;;;;45.97;26.02;;;;;;;;;;6277641;28;20098;-75
2024/02/18 10:40:15;;;;;;;41.65;25.88;;;;;;;;;;6271861;28;20055;-74
2024/02/18 10:43:19;;;;;;;40.17;22.20;;;;;;;;;;6253256;28;20563;-75
2024/02/18 10:46:23;;;;;;;45.90;24.80;;;;;;;;;;6246770;28;20692;-75
2024/02/18 10:49:35;;;;;;;35.42;19.67;;;;;;;;;;6264302;28;20540;-75
2024/02/18 10:52:44;;;;;;;40.63;20.65;;;;;;;;;;6267100;28;20068;-75
2024/02/18 10:56:12;;;;;;;40.95;22.88;;;;;;;;;;6265528;28;20332;-75
2024/02/18 10:59:30;;;;;;;37.67;20.52;;;;;;;;;;6246653;28;20124;-75
2024/02/18 11:02:37;;;;;;;;;;;;;;;;;;6269390;28;20060;-74
2024/02/18 11:05:39;;;;;;;48.20;28.05;;;;;;;;;;6234004;28;20069;-74
2024/02/18 11:08:43;;;;;;;37.58;20.77;;;;;;;;;;6245011;28;20056;-74
2024/02/18 11:11:48;;;;;;;64.43;35.38;;;;;;;;;;6233046;28;20056;-74
2024/02/18 11:14:51;;;;;;;36.53;21.90;;;;;;;;;;6253800;28;20036;-74
2024/02/18 11:17:54;;;;;;;67.30;30.70;;;;;;;;;;6230972;28;20045;-74
2024/02/18 11:20:58;;;;;;;52.13;28.05;;;;;;;;;;6284947;28;20049;-74
2024/02/18 11:24:00;;;;;;;42.45;21.30;;;;;;;;;;6253616;28;20083;-75
2024/02/18 11:27:03;;;;;;;71.88;33.30;;;;;;;;;;6286972;28;20063;-75
2024/02/18 11:30:05;;;;;;;62.03;28.40;;;;;;;;;;6265472;28;20441;-75
2024/02/18 11:33:07;;;;;;;27.45;16.83;;;;;;;;;;6281493;28;20049;-75
2024/02/18 11:36:12;;;;;;;32.67;18.92;;;;;;;;;;6244636;28;20414;-75
2024/02/18 11:39:15;;;;;;;39.53;23.63;;;;;;;;;;6273198;28;20052;-75
2024/02/18 11:42:20;;;;;;;31.73;19.85;;;;;;;;;;6280978;28;20098;-75
2024/02/18 11:45:24;;;;;;;35.05;22.10;;;;;;;;;;6286056;28;20041;-75
2024/02/18 11:48:26;;;;;;;37.08;19.77;;;;;;;;;;6277061;28;20651;-75
2024/02/18 11:51:28;;;;;;;30.25;17.20;;;;;;;;;;6266247;28;20584;-76
2024/02/18 11:54:32;;;;;;;31.88;19.73;;;;;;;;;;6265828;28;20525;-75
2024/02/18 11:57:34;;;;;;;31.23;19.80;;;;;;;;;;6261134;28;20060;-75
2024/02/18 12:00:36;;;;;;;33.03;17.00;;;;;;;;;;6263997;28;20480;-75
2024/02/18 12:03:40;;;;;;;27.38;17.30;;;;;;;;;;6280704;28;20041;-75
2024/02/18 12:06:43;;;;;;;28.38;17.63;;;;;;;;;;6259909;28;20521;-75
2024/02/18 12:09:45;;;;;;;27.45;18.17;;;;;;;;;;6264902;28;20619;-75
2024/02/18 12:12:48;;;;;;;26.55;16.83;;;;;;;;;;6262967;28;20045;-75
2024/02/18 12:15:50;;;;;;;31.50;18.45;;;;;;;;;;6267756;28;20052;-75
2024/02/18 12:18:53;;;;;;;38.08;22.00;;;;;;;;;;6255364;28;20056;-75
2024/02/18 12:21:58;;;;;;;33.83;20.35;;;;;;;;;;6263445;28;20119;-75
2024/02/18 12:25:01;;;;;;;32.85;17.95;;;;;;;;;;6266602;28;20588;-76
2024/02/18 12:28:04;;;;;;;29.13;18.90;;;;;;;;;;6258532;28;20048;-76
2024/02/18 12:31:06;;;;;;;34.00;19.83;;;;;;;;;;6257089;28;20044;-75
2024/02/18 12:34:09;;;;;;;21.42;16.23;;;;;;;;;;6244314;28;20072;-75
2024/02/18 12:37:11;;;;;;;31.92;19.33;;;;;;;;;;6260154;28;20527;-75
2024/02/18 12:40:16;;;;;;;28.35;19.33;;;;;;;;;;6262410;28;20044;-75
2024/02/18 12:43:18;;;;;;;31.58;18.08;;;;;;;;;;6284931;28;20059;-76
2024/02/18 12:46:41;;;;;;;27.23;14.63;;;;;;;;;;6264104;28;20047;-76
2024/02/18 12:49:46;;;;;;;24.25;15.52;;;;;;;;;;6257735;28;20041;-76
2024/02/18 12:52:49;;;;;;;25.83;14.55;;;;;;;;;;6261686;28;20179;-75
2024/02/18 12:55:52;;;;;;;32.58;19.27;;;;;;;;;;6263173;28;20037;-75
2024/02/18 12:58:57;;;;;;;35.65;22.40;;;;;;;;;;6266343;28;20055;-75
2024/02/18 13:02:00;;;;;;;27.45;16.80;;;;;;;;;;6262675;28;20895;-76
2024/02/18 13:05:02;;;;;;;25.75;17.42;;;;;;;;;;6257479;28;20072;-75
2024/02/18 13:08:07;;;;;;;30.85;19.60;;;;;;;;;;6262844;28;20059;-74
2024/02/18 13:11:15;;;;;;;26.70;18.45;;;;;;;;;;6239958;28;20931;-75
2024/02/18 13:14:19;;;;;;;24.45;14.88;;;;;;;;;;6231457;28;20044;-76
2024/02/18 13:17:22;;;;;;;24.02;17.42;;;;;;;;;;6227828;28;20044;-77
2024/02/18 13:20:25;;;;;;;29.73;20.60;;;;;;;;;;6268324;28;20067;-75
2024/02/18 13:23:30;;;;;;;29.88;18.35;;;;;;;;;;6259715;28;20051;-76
2024/02/18 13:26:33;;;;;;;22.33;14.60;;;;;;;;;;6263307;28;20064;-75
2024/02/18 13:29:36;;;;;;;27.48;16.80;;;;;;;;;;6268643;28;20040;-76
2024/02/18 13:32:38;;;;;;;36.35;20.75;;;;;;;;;;6251891;28;20053;-76
2024/02/18 13:35:41;;;;;;;31.48;20.65;;;;;;;;;;6280967;28;21053;-76
2024/02/18 13:38:44;;;;;;;32.35;20.27;;;;;;;;;;6263172;28;20040;-76
2024/02/18 13:41:47;;;;;;;30.42;17.83;;;;;;;;;;6247214;28;20197;-76
2024/02/18 13:44:51;;;;;;;27.10;18.58;;;;;;;;;;6270905;28;20047;-76
2024/02/18 13:47:58;;;;;;;38.13;21.58;;;;;;;;;;6284957;28;20186;-75
2024/02/18 13:51:01;;;;;;;28.95;18.17;;;;;;;;;;6241927;28;20474;-75
2024/02/18 13:54:03;;;;;;;28.02;19.02;;;;;;;;;;6265784;28;20741;-76
2024/02/18 13:57:07;;;;;;;31.35;17.52;;;;;;;;;;6246359;28;20097;-76
2024/02/18 14:00:11;;;;;;;35.90;21.17;;;;;;;;;;6243368;28;20051;-76
2024/02/18 14:03:15;;;;;;;27.13;16.35;;;;;;;;;;6256688;28;20076;-75
2024/02/18 14:06:17;;;;;;;24.33;14.48;;;;;;;;;;6237347;28;20054;-75
2024/02/18 14:09:20;;;;;;;32.13;22.35;;;;;;;;;;6248537;28;20044;-75
2024/02/18 14:12:23;;;;;;;34.60;19.17;;;;;;;;;;6264827;28;20037;-75
2024/02/18 14:15:26;;;;;;;31.90;19.70;;;;;;;;;;6276627;28;20036;-75
2024/02/18 14:18:29;;;;;;;23.65;15.73;;;;;;;;;;6258133;28;20048;-74
2024/02/18 14:21:31;;;;;;;33.75;20.33;;;;;;;;;;6278884;28;20541;-74
2024/02/18 14:24:34;;;;;;;27.10;14.82;;;;;;;;;;6231942;28;20055;-74
2024/02/18 14:27:37;;;;;;;24.80;16.60;;;;;;;;;;6268915;28;20064;-75
2024/02/18 14:30:39;;;;;;;30.15;19.27;;;;;;;;;;6218120;28;20079;-74
2024/02/18 14:33:41;;;;;;;25.70;17.67;;;;;;;;;;6252110;28;20060;-74
2024/02/18 14:36:44;;;;;;;40.92;18.98;;;;;;;;;;6278794;28;20044;-75
2024/02/18 14:39:47;;;;;;;31.63;19.15;;;;;;;;;;6267231;28;20082;-74
2024/02/18 14:42:49;;;;;;;35.08;22.15;;;;;;;;;;6249137;28;20135;-76
2024/02/18 14:45:52;;;;;;;27.55;18.92;;;;;;;;;;6261839;28;20044;-75
2024/02/18 14:48:55;;;;;;;36.83;21.00;;;;;;;;;;6268542;28;20049;-76
2024/02/18 14:51:57;;;;;;;27.63;17.38;;;;;;;;;;6274203;28;20513;-75
2024/02/18 14:54:59;;;;;;;28.42;17.38;;;;;;;;;;6282928;28;20040;-76
2024/02/18 14:58:02;;;;;;;27.30;16.95;;;;;;;;;;6277690;28;20045;-76
2024/02/18 15:01:04;;;;;;;25.38;14.27;;;;;;;;;;6263800;28;20039;-76
2024/02/18 15:04:06;;;;;;;34.40;21.70;;;;;;;;;;6288523;28;20033;-76
2024/02/18 15:07:09;;;;;;;30.40;17.63;;;;;;;;;;6277926;28;20036;-76
2024/02/18 15:10:12;;;;;;;27.52;16.42;;;;;;;;;;6318792;28;20048;-76
2024/02/18 15:13:20;;;;;;;27.95;15.95;;;;;;;;;;6258594;28;20131;-77
2024/02/18 15:16:22;;;;;;;25.98;17.45;;;;;;;;;;6290521;28;20101;-75
2024/02/18 15:19:24;;;;;;;29.33;17.08;;;;;;;;;;6251503;28;20040;-76
2024/02/18 15:22:27;;;;;;;19.77;12.27;;;;;;;;;;6250527;28;20127;-74
2024/02/18 15:25:29;;;;;;;21.70;13.55;;;;;;;;;;6285174;28;20123;-75
2024/02/18 15:28:32;;;;;;;19.73;11.50;;;;;;;;;;6262650;28;20135;-75
2024/02/18 15:31:39;;;;;;;20.67;12.93;;;;;;;;;;6276418;28;20040;-75
2024/02/18 15:34:41;;;;;;;26.73;14.43;;;;;;;;;;6274985;28;20148;-74
2024/02/18 15:37:43;;;;;;;19.35;12.77;;;;;;;;;;6284798;28;20083;-77
2024/02/18 15:40:47;;;;;;;21.17;13.50;;;;;;;;;;6273377;28;20045;-75
2024/02/18 15:43:49;;;;;;;15.80;10.10;;;;;;;;;;6265801;28;20587;-76
2024/02/18 15:46:52;;;;;;;22.23;14.07;;;;;;;;;;6274543;28;20720;-76
2024/02/18 15:49:56;;;;;;;25.25;15.10;;;;;;;;;;6243020;28;20037;-76
2024/02/18 15:52:59;;;;;;;25.77;14.80;;;;;;;;;;6275376;28;20127;-77
2024/02/18 15:56:06;;;;;;;27.10;16.48;;;;;;;;;;6245493;28;20036;-78
2024/02/18 15:59:09;;;;;;;25.25;16.27;;;;;;;;;;6283089;28;20569;-76
2024/02/18 16:02:11;;;;;;;23.95;15.00;;;;;;;;;;6297385;28;20054;-75
2024/02/18 16:05:15;;;;;;;31.23;19.27;;;;;;;;;;6272271;28;20036;-75
2024/02/18 16:08:18;;;;;;;27.20;15.43;;;;;;;;;;6238405;28;20067;-78
2024/02/18 16:11:20;;;;;;;23.92;14.63;;;;;;;;;;6253579;28;20056;-76
2024/02/18 16:14:26;;;;;;;23.52;13.85;;;;;;;;;;6234684;28;20047;-75
2024/02/18 16:17:32;;;;;;;30.63;19.23;;;;;;;;;;6280674;28;20048;-75
2024/02/18 16:20:34;;;;;;;32.45;20.27;;;;;;;;;;6273260;28;20044;-75
2024/02/18 16:23:36;;;;;;;32.63;19.63;;;;;;;;;;6251475;28;20048;-76
2024/02/18 16:26:39;;;;;;;25.50;16.10;;;;;;;;;;6287605;28;20044;-75
2024/02/18 16:29:42;;;;;;;24.30;17.08;;;;;;;;;;6263574;28;20534;-75
2024/02/18 16:32:44;;;;;;;26.95;16.88;;;;;;;;;;6275447;28;20045;-76
2024/02/18 16:35:47;;;;;;;23.48;15.13;;;;;;;;;;6257546;28;20429;-74
2024/02/18 16:38:50;;;;;;;28.02;18.10;;;;;;;;;;6281396;28;20046;-76
2024/02/18 16:41:52;;;;;;;24.60;14.98;;;;;;;;;;6249232;28;20847;-76
2024/02/18 16:44:55;;;;;;;22.17;14.55;;;;;;;;;;6245458;28;20048;-75
2024/02/18 16:47:57;;;;;;;23.42;15.20;;;;;;;;;;6259963;28;20047;-76
2024/02/18 16:51:00;;;;;;;24.25;15.65;;;;;;;;;;6245492;28;20135;-75
2024/02/18 16:54:02;;;;;;;25.17;14.63;;;;;;;;;;6280541;28;20548;-76
2024/02/18 16:57:05;;;;;;;24.55;16.13;;;;;;;;;;6279951;28;20051;-77
2024/02/18 17:00:16;;;;;;;28.63;16.30;;;;;;;;;;6246652;28;20439;-78
2024/02/18 17:03:18;;;;;;;24.42;15.82;;;;;;;;;;6257203;28;20123;-75
2024/02/18 17:06:20;;;;;;;25.45;16.23;;;;;;;;;;6261717;28;20040;-75
2024/02/18 17:09:24;;;;;;;25.67;16.83;;;;;;;;;;6241187;28;20055;-75
2024/02/18 17:12:26;;;;;;;29.88;20.67;;;;;;;;;;6262789;28;20052;-75
2024/02/18 17:15:29;;;;;;;34.65;23.05;;;;;;;;;;6248729;28;20775;-75
2024/02/18 17:18:35;;;;;;;52.60;34.75;;;;;;;;;;6276839;28;20716;-76
2024/02/18 17:21:42;;;;;;;72.57;46.80;;;;;;;;;;6278885;28;20110;-76
2024/02/18 17:24:48;;;;;;;49.10;33.83;;;;;;;;;;6258512;28;20193;-76
2024/02/18 17:27:50;;;;;;;38.30;22.52;;;;;;;;;;6230726;28;20053;-76
2024/02/18 17:30:55;;;;;;;31.60;21.40;;;;;;;;;;6240946;28;20044;-76
2024/02/18 17:33:58;;;;;;;35.10;21.60;;;;;;;;;;6229564;28;20045;-75
2024/02/18 17:37:00;;;;;;;41.15;25.58;;;;;;;;;;6257934;28;20051;-75
2024/02/18 17:40:03;;;;;;;45.15;24.83;;;;;;;;;;6279334;28;20060;-74
2024/02/18 17:43:06;;;;;;;38.03;23.38;;;;;;;;;;6258617;28;20045;-75
2024/02/18 17:46:08;;;;;;;32.88;19.63;;;;;;;;;;6278629;28;20102;-75
2024/02/18 17:49:11;;;;;;;39.33;24.35;;;;;;;;;;6266211;28;20048;-75